createdAt,value
2022-12-23T00:01:59.947Z,13.07
2022-12-23T00:04:27.241Z,13.07
2022-12-23T00:06:54.523Z,12.88
2022-12-23T00:09:21.927Z,13.30
2022-12-23T00:12:07.849Z,14.30
2022-12-23T00:14:53.464Z,14.13
2022-12-23T00:17:23.185Z,13.03
2022-12-23T00:19:50.734Z,12.65
2022-12-23T00:22:18.046Z,10.68
2022-12-23T00:24:45.308Z,11.98
2022-12-23T00:27:12.637Z,13.38
2022-12-23T00:29:39.938Z,11.93
2022-12-23T00:32:07.291Z,13.18
2022-12-23T00:34:34.635Z,12.77
2022-12-23T00:37:02.110Z,13.00
2022-12-23T00:39:52.016Z,13.07
2022-12-23T00:42:40.498Z,11.93
2022-12-23T00:45:17.181Z,10.38
2022-12-23T00:48:03.136Z,12.05
2022-12-23T00:50:30.638Z,13.27
2022-12-23T00:52:58.077Z,12.68
2022-12-23T00:55:25.358Z,10.23
2022-12-23T00:57:52.643Z,10.60
2022-12-23T01:00:20.219Z,6.32
2022-12-23T01:03:06.131Z,10.57
2022-12-23T01:05:39.387Z,10.60
2022-12-23T01:08:09.435Z,10.00
2022-12-23T01:10:40.318Z,8.88
2022-12-23T01:13:08.371Z,9.60
2022-12-23T01:15:35.624Z,9.80
2022-12-23T01:18:02.927Z,11.25
2022-12-23T01:20:30.229Z,10.60
2022-12-23T01:22:57.770Z,10.27
2022-12-23T01:25:25.034Z,11.10
2022-12-23T01:27:52.332Z,10.77
2022-12-23T01:30:19.733Z,11.52
2022-12-23T01:32:48.389Z,11.53
2022-12-23T01:35:15.785Z,10.73
2022-12-23T01:37:43.047Z,12.38
2022-12-23T01:40:10.615Z,11.77
2022-12-23T01:42:43.780Z,11.80
2022-12-23T01:45:21.731Z,11.97
2022-12-23T01:47:57.130Z,10.70
2022-12-23T01:50:31.867Z,11.38
2022-12-23T01:53:26.439Z,11.75
2022-12-23T01:56:02.673Z,10.88
2022-12-23T01:58:34.471Z,10.17
2022-12-23T02:01:20.531Z,10.23
2022-12-23T02:03:48.790Z,9.63
2022-12-23T02:06:41.303Z,9.50
2022-12-23T02:09:19.220Z,9.98
2022-12-23T02:11:58.637Z,9.93
2022-12-23T02:15:04.532Z,10.50
2022-12-23T02:17:37.531Z,10.10
2022-12-23T02:20:29.503Z,9.07
2022-12-23T02:23:24.814Z,7.63
2022-12-23T02:25:52.159Z,9.03
2022-12-23T02:28:19.407Z,9.80
2022-12-23T02:30:48.640Z,7.57
2022-12-23T02:33:52.216Z,8.50
2022-12-23T02:36:34.474Z,9.52
2022-12-23T02:39:09.302Z,9.33
2022-12-23T02:41:38.998Z,9.55
2022-12-23T02:44:13.266Z,10.57
2022-12-23T02:46:48.435Z,10.13
2022-12-23T02:49:20.240Z,10.68
2022-12-23T02:51:50.720Z,8.87
2022-12-23T02:54:21.922Z,11.02
2022-12-23T02:56:50.483Z,11.27
2022-12-23T02:59:22.887Z,8.82
2022-12-23T03:01:50.296Z,9.70
2022-12-23T03:04:17.648Z,9.37
2022-12-23T03:06:46.516Z,8.45
2022-12-23T03:09:24.279Z,10.48
2022-12-23T03:12:28.684Z,8.63
2022-12-23T03:15:15.179Z,7.85
2022-12-23T03:17:54.440Z,6.30
2022-12-23T03:20:28.772Z,8.80
2022-12-23T03:23:05.897Z,10.75
2022-12-23T03:26:03.146Z,11.23
2022-12-23T03:28:40.230Z,10.77
2022-12-23T03:31:09.737Z,5.00
2022-12-23T03:33:39.202Z,9.27
2022-12-23T03:36:16.105Z,11.02
2022-12-23T03:38:43.886Z,9.90
2022-12-23T03:41:17.479Z,10.48
2022-12-23T03:43:50.975Z,10.13
2022-12-23T03:46:25.307Z,10.82
2022-12-23T03:48:54.341Z,10.70
2022-12-23T03:51:27.524Z,7.75
2022-12-23T03:54:03.930Z,9.55
2022-12-23T03:56:37.522Z,9.10
2022-12-23T03:59:14.499Z,7.30
2022-12-23T04:02:00.741Z,10.50
2022-12-23T04:04:52.363Z,10.45
2022-12-23T04:07:22.867Z,10.43
2022-12-23T04:09:51.514Z,10.77
2022-12-23T04:12:18.784Z,10.32
2022-12-23T04:14:47.734Z,9.13
2022-12-23T04:17:15.556Z,10.43
2022-12-23T04:19:45.486Z,9.98
2022-12-23T04:22:13.467Z,9.93
2022-12-23T04:24:40.829Z,10.35
2022-12-23T04:27:09.727Z,10.88
2022-12-23T04:29:37.011Z,13.20
2022-12-23T04:32:04.915Z,11.95
2022-12-23T04:34:32.223Z,10.50
2022-12-23T04:36:59.513Z,11.20
2022-12-23T04:39:26.771Z,11.95
2022-12-23T04:41:54.094Z,11.00
2022-12-23T04:44:21.418Z,10.25
2022-12-23T04:46:48.793Z,9.23
2022-12-23T04:49:16.234Z,11.15
2022-12-23T04:51:43.562Z,11.00
2022-12-23T04:54:10.877Z,10.95
2022-12-23T04:56:38.149Z,9.90
2022-12-23T04:59:05.526Z,9.47
2022-12-23T05:01:33.020Z,9.27
2022-12-23T05:04:00.395Z,8.38
2022-12-23T05:06:27.687Z,9.63
2022-12-23T05:08:54.968Z,7.75
2022-12-23T05:11:22.341Z,6.23
2022-12-23T05:13:49.709Z,7.97
2022-12-23T05:16:17.041Z,9.00
2022-12-23T05:18:44.396Z,9.32
2022-12-23T05:21:11.740Z,11.23
2022-12-23T05:23:39.093Z,10.63
2022-12-23T05:26:06.382Z,9.88
2022-12-23T05:28:33.706Z,11.32
2022-12-23T05:31:02.297Z,10.55
2022-12-23T05:33:29.891Z,10.35
2022-12-23T05:35:57.265Z,9.93
2022-12-23T05:38:24.756Z,10.43
2022-12-23T05:40:52.096Z,13.05
2022-12-23T05:43:19.596Z,6.28
2022-12-23T05:45:47.158Z,10.10
2022-12-23T05:48:14.483Z,6.47
2022-12-23T05:50:41.801Z,9.93
2022-12-23T05:53:09.120Z,9.90
2022-12-23T05:55:36.438Z,10.60
2022-12-23T05:58:03.784Z,10.95
2022-12-23T06:00:31.057Z,11.63
2022-12-23T06:02:58.511Z,11.55
2022-12-23T06:05:25.904Z,11.05
2022-12-23T06:07:53.161Z,10.75
2022-12-23T06:10:20.416Z,11.32
2022-12-23T06:12:47.736Z,9.83
2022-12-23T06:15:15.790Z,11.20
2022-12-23T06:17:43.212Z,12.73
2022-12-23T06:20:16.297Z,11.35
2022-12-23T06:22:47.379Z,10.30
2022-12-23T06:25:14.665Z,11.17
2022-12-23T06:27:41.901Z,10.90
2022-12-23T06:30:10.241Z,11.65
2022-12-23T06:32:38.744Z,11.50
2022-12-23T06:35:07.649Z,11.68
2022-12-23T06:37:34.956Z,11.23
2022-12-23T06:40:02.304Z,10.80
2022-12-23T06:42:29.833Z,11.23
2022-12-23T06:44:57.072Z,10.93
2022-12-23T06:47:24.339Z,11.52
2022-12-23T06:49:51.681Z,11.63
2022-12-23T06:52:19.018Z,11.57
2022-12-23T06:54:46.375Z,9.82
2022-12-23T06:57:13.717Z,10.90
2022-12-23T06:59:41.011Z,11.18
2022-12-23T07:02:12.832Z,10.90
2022-12-23T07:04:40.392Z,11.10
2022-12-23T07:07:07.713Z,12.10
2022-12-23T07:09:34.956Z,11.13
2022-12-23T07:12:03.903Z,11.27
2022-12-23T07:14:31.278Z,9.73
2022-12-23T07:16:58.660Z,10.30
2022-12-23T07:19:26.018Z,10.90
2022-12-23T07:21:53.449Z,11.68
2022-12-23T07:24:20.729Z,13.98
2022-12-23T07:26:48.103Z,11.27
2022-12-23T07:29:15.445Z,12.13
2022-12-23T07:31:42.972Z,13.90
2022-12-23T07:34:10.304Z,13.95
2022-12-23T07:36:37.622Z,13.82
2022-12-23T07:39:05.078Z,11.07
2022-12-23T07:41:32.341Z,12.77
2022-12-23T07:44:07.472Z,12.40
2022-12-23T07:46:35.052Z,10.82
2022-12-23T07:49:02.385Z,11.45
2022-12-23T07:51:29.820Z,9.63
2022-12-23T07:53:57.043Z,10.30
2022-12-23T07:56:24.390Z,10.60
2022-12-23T07:58:52.189Z,11.00
2022-12-23T08:01:19.924Z,9.15
2022-12-23T08:03:47.356Z,10.60
2022-12-23T08:06:15.367Z,10.15
2022-12-23T08:08:45.221Z,10.27
2022-12-23T08:11:13.468Z,10.43
2022-12-23T08:13:41.719Z,12.32
2022-12-23T08:16:09.409Z,12.90
2022-12-23T08:18:38.119Z,11.88
2022-12-23T08:21:13.253Z,13.20
2022-12-23T08:23:40.679Z,11.50
2022-12-23T08:26:12.608Z,11.90
2022-12-23T08:28:40.720Z,11.20
2022-12-23T08:31:13.001Z,13.48
2022-12-23T08:33:41.305Z,12.27
2022-12-23T08:36:09.500Z,12.43
2022-12-23T08:38:36.981Z,13.98
2022-12-23T08:41:08.988Z,12.07
2022-12-23T08:43:36.494Z,13.32
2022-12-23T08:46:04.244Z,11.15
2022-12-23T08:48:32.310Z,13.82
2022-12-23T08:51:12.477Z,15.98
2022-12-23T08:53:40.105Z,12.90
2022-12-23T08:56:10.757Z,12.70
2022-12-23T08:58:45.616Z,12.45
2022-12-23T09:01:14.023Z,13.43
2022-12-23T09:03:41.566Z,13.00
2022-12-23T09:06:28.616Z,13.23
2022-12-23T09:08:56.679Z,11.68
2022-12-23T09:11:25.377Z,11.10
2022-12-23T09:13:52.920Z,10.85
2022-12-23T09:16:20.389Z,11.10
2022-12-23T09:18:47.686Z,10.77
2022-12-23T09:21:16.630Z,10.52
2022-12-23T09:23:43.961Z,11.48
2022-12-23T09:26:11.521Z,9.63
2022-12-23T09:28:39.830Z,8.23
2022-12-23T09:31:11.417Z,8.23
2022-12-23T09:33:38.920Z,8.02
2022-12-23T09:36:06.655Z,8.98
2022-12-23T09:38:34.116Z,7.60
2022-12-23T09:41:24.921Z,7.65
2022-12-23T09:43:52.221Z,7.87
2022-12-23T09:46:21.821Z,8.82
2022-12-23T09:48:54.090Z,9.48
2022-12-23T09:51:22.751Z,7.38
2022-12-23T09:54:04.045Z,8.35
2022-12-23T09:56:53.171Z,7.77
2022-12-23T09:59:26.356Z,8.18
2022-12-23T10:02:16.581Z,7.57
2022-12-23T10:05:05.780Z,7.50
2022-12-23T10:07:39.930Z,8.27
2022-12-23T10:10:32.355Z,7.57
2022-12-23T10:13:00.691Z,8.18
2022-12-23T10:15:44.305Z,6.70
2022-12-23T10:18:47.133Z,7.68
2022-12-23T10:21:47.318Z,7.60
2022-12-23T10:24:24.936Z,6.70
2022-12-23T10:26:56.827Z,6.47
2022-12-23T10:29:25.469Z,5.90
2022-12-23T10:32:04.548Z,7.53
2022-12-23T10:34:38.783Z,5.82
2022-12-23T10:37:15.483Z,6.30
2022-12-23T10:39:53.293Z,5.93
2022-12-23T10:43:02.217Z,8.10
2022-12-23T10:45:50.770Z,6.68
2022-12-23T10:48:51.115Z,7.10
2022-12-23T10:51:21.482Z,6.60
2022-12-23T10:54:06.015Z,5.78
2022-12-23T10:56:33.342Z,6.63
2022-12-23T10:59:00.995Z,6.35
2022-12-23T11:01:30.397Z,6.05
2022-12-23T11:04:13.188Z,5.80
2022-12-23T11:06:43.044Z,6.00
2022-12-23T11:09:33.873Z,6.28
2022-12-23T11:12:02.722Z,5.68
2022-12-23T11:14:39.122Z,6.63
2022-12-23T11:17:18.824Z,7.07
2022-12-23T11:19:46.215Z,6.97
2022-12-23T11:22:31.376Z,7.10
2022-12-23T11:25:26.940Z,7.88
2022-12-23T11:28:15.477Z,8.25
2022-12-23T11:30:50.380Z,6.33
2022-12-23T11:33:32.050Z,6.25
2022-12-23T11:36:14.522Z,6.25
2022-12-23T11:38:59.101Z,6.63
2022-12-23T11:41:34.207Z,6.50
2022-12-23T11:44:28.565Z,7.40
2022-12-23T11:46:55.923Z,7.07
2022-12-23T11:49:25.141Z,7.90
2022-12-23T11:52:05.820Z,9.57
2022-12-23T11:54:33.526Z,6.97
2022-12-23T11:57:02.354Z,7.10
2022-12-23T11:59:36.038Z,5.80
2022-12-23T12:02:25.230Z,6.82
2022-12-23T12:05:15.582Z,5.20
2022-12-23T12:07:45.636Z,6.18
2022-12-23T12:10:18.180Z,8.93
2022-12-23T12:12:48.786Z,6.97
2022-12-23T12:15:40.700Z,7.28
2022-12-23T12:18:10.206Z,7.53
2022-12-23T12:20:39.792Z,7.68
2022-12-23T12:23:13.098Z,6.43
2022-12-23T12:25:43.441Z,6.85
2022-12-23T12:28:19.903Z,6.88
2022-12-23T12:30:49.594Z,7.35
2022-12-23T12:33:23.574Z,9.73
2022-12-23T12:36:05.525Z,7.83
2022-12-23T12:38:33.479Z,8.50
2022-12-23T12:41:19.495Z,5.78
2022-12-23T12:44:18.601Z,6.82
2022-12-23T12:46:55.844Z,6.45
2022-12-23T12:49:25.351Z,7.17
2022-12-23T12:52:14.114Z,7.95
2022-12-23T12:54:46.805Z,9.43
2022-12-23T12:57:18.659Z,8.80
2022-12-23T12:59:46.010Z,7.03
2022-12-23T13:02:32.406Z,7.70
2022-12-23T13:04:59.711Z,7.00
2022-12-23T13:07:48.576Z,7.68
2022-12-23T13:10:37.238Z,8.70
2022-12-23T13:13:23.540Z,9.45
2022-12-23T13:16:18.645Z,9.57
2022-12-23T13:19:24.957Z,8.68
2022-12-23T13:22:05.384Z,8.10
2022-12-23T13:24:38.552Z,8.52
2022-12-23T13:27:14.986Z,7.50
2022-12-23T13:30:24.318Z,7.90
2022-12-23T13:33:09.205Z,9.43
2022-12-23T13:36:05.058Z,8.65
2022-12-23T13:38:52.010Z,8.20
2022-12-23T13:41:36.362Z,9.05
2022-12-23T13:44:05.544Z,8.70
2022-12-23T13:47:10.295Z,9.30
2022-12-23T13:49:40.425Z,9.60
2022-12-23T13:52:35.679Z,9.40
2022-12-23T13:55:08.956Z,10.48
2022-12-23T13:57:42.167Z,9.83
2022-12-23T14:00:18.666Z,10.90
2022-12-23T14:02:58.263Z,10.63
2022-12-23T14:05:45.465Z,11.20
2022-12-23T14:08:18.883Z,10.38
2022-12-23T14:11:03.819Z,10.00
2022-12-23T14:13:59.426Z,9.20
2022-12-23T14:16:51.418Z,10.98
2022-12-23T14:19:18.826Z,10.90
2022-12-23T14:22:10.600Z,11.07
2022-12-23T14:24:50.008Z,11.57
2022-12-23T14:27:41.481Z,12.65
2022-12-23T14:30:33.850Z,12.52
2022-12-23T14:33:14.598Z,14.38
2022-12-23T14:35:42.889Z,31.38
2022-12-23T14:38:10.577Z,15.33
2022-12-23T14:40:37.864Z,17.73
2022-12-23T14:43:25.297Z,22.02
2022-12-23T14:45:56.850Z,20.90
2022-12-23T14:48:37.142Z,23.55
2022-12-23T14:51:22.668Z,23.33
2022-12-23T14:53:52.697Z,21.23
2022-12-23T14:56:20.105Z,25.23
2022-12-23T14:59:15.370Z,20.85
2022-12-23T15:01:43.590Z,20.70
2022-12-23T15:04:18.566Z,23.77
2022-12-23T15:06:55.641Z,26.10
2022-12-23T15:09:35.461Z,24.80
2022-12-23T15:12:06.373Z,22.05
2022-12-23T15:14:57.879Z,24.48
2022-12-23T15:17:33.033Z,21.93
2022-12-23T15:20:21.709Z,25.00
2022-12-23T15:22:49.224Z,25.35
2022-12-23T15:25:32.810Z,24.08
2022-12-23T15:28:02.225Z,22.85
2022-12-23T15:30:35.162Z,24.33
2022-12-23T15:33:27.918Z,33.00
2022-12-23T15:35:54.362Z,35.50
2022-12-23T15:38:21.738Z,26.48
2022-12-23T15:41:03.208Z,29.67
2022-12-23T15:43:30.621Z,32.83
2022-12-23T15:46:25.166Z,32.58
2022-12-23T15:48:56.790Z,31.35
2022-12-23T15:54:29.875Z,32.63
2022-12-23T15:56:57.971Z,31.73
2022-12-23T15:59:33.309Z,31.30
2022-12-23T16:02:32.613Z,32.08
2022-12-23T16:05:00.641Z,29.52
2022-12-23T16:07:43.047Z,29.70
2022-12-23T16:10:15.570Z,29.80
2022-12-23T16:12:42.842Z,28.83
2022-12-23T16:15:20.686Z,29.65
2022-12-23T16:17:47.980Z,30.05
2022-12-23T16:20:23.668Z,42.92
2022-12-23T16:22:55.143Z,49.30
2022-12-23T16:25:44.103Z,50.17
2022-12-23T16:28:26.513Z,56.67
2022-12-23T16:30:55.155Z,50.35
2022-12-23T16:33:44.325Z,48.88
2022-12-23T16:36:25.421Z,43.63
2022-12-23T16:39:14.405Z,40.83
2022-12-23T16:41:41.822Z,42.78
2022-12-23T16:44:09.167Z,58.88
2022-12-23T16:46:37.887Z,41.28
2022-12-23T16:49:06.588Z,43.63
2022-12-23T16:51:40.640Z,48.45
2022-12-23T16:54:12.615Z,50.20
2022-12-23T16:56:40.858Z,38.90
2022-12-23T16:59:08.659Z,40.28
2022-12-23T17:01:40.799Z,39.30
2022-12-23T17:04:09.137Z,37.72
2022-12-23T17:06:36.405Z,37.67
2022-12-23T17:09:05.194Z,36.72
2022-12-23T17:11:42.854Z,36.13
2022-12-23T17:14:20.960Z,33.37
2022-12-23T17:16:48.577Z,33.45
2022-12-23T17:19:18.225Z,33.03
2022-12-23T17:21:49.912Z,35.35
2022-12-23T17:24:18.747Z,35.75
2022-12-23T17:26:46.055Z,34.80
2022-12-23T17:29:13.339Z,33.22
2022-12-23T17:31:41.348Z,34.38
2022-12-23T17:34:19.345Z,35.13
2022-12-23T17:36:50.348Z,34.05
2022-12-23T17:39:19.129Z,34.50
2022-12-23T17:41:46.541Z,32.60
2022-12-23T17:44:14.782Z,33.60
2022-12-23T17:46:42.282Z,30.15
2022-12-23T17:49:09.581Z,33.25
2022-12-23T17:51:36.903Z,31.27
2022-12-23T17:54:05.901Z,35.67
2022-12-23T17:56:33.208Z,38.67
2022-12-23T17:59:00.503Z,41.92
2022-12-23T18:01:30.248Z,37.90
2022-12-23T18:03:58.285Z,42.00
2022-12-23T18:06:26.343Z,44.42
2022-12-23T18:08:53.736Z,46.58
2022-12-23T18:11:30.571Z,48.38
2022-12-23T18:13:57.842Z,48.00
2022-12-23T18:16:25.172Z,52.00
2022-12-23T18:18:53.013Z,53.65
2022-12-23T18:21:25.251Z,56.03
2022-12-23T18:23:53.575Z,58.78
2022-12-23T18:26:21.081Z,58.67
2022-12-23T18:28:48.381Z,60.70
2022-12-23T18:31:20.480Z,57.38
2022-12-23T18:33:47.960Z,59.47
2022-12-23T18:36:31.685Z,64.43
2022-12-23T18:38:59.081Z,65.50
2022-12-23T18:41:26.713Z,61.70
2022-12-23T18:43:54.295Z,60.42
2022-12-23T18:46:21.733Z,65.70
2022-12-23T18:48:49.198Z,66.90
2022-12-23T18:51:17.322Z,71.20
2022-12-23T18:53:45.628Z,71.80
2022-12-23T18:56:21.181Z,65.00
2022-12-23T18:58:48.940Z,68.20
2022-12-23T19:01:17.091Z,66.18
2022-12-23T19:03:44.556Z,68.47
2022-12-23T19:06:15.142Z,60.03
2022-12-23T19:08:42.678Z,60.03
2022-12-23T19:11:18.384Z,59.90
2022-12-23T19:13:45.921Z,51.67
2022-12-23T19:16:15.598Z,51.90
2022-12-23T19:18:43.551Z,56.30
2022-12-23T19:21:10.855Z,51.85
2022-12-23T19:23:39.798Z,51.70
2022-12-23T19:26:08.726Z,50.58
2022-12-23T19:28:37.169Z,53.10
2022-12-23T19:31:08.955Z,51.27
2022-12-23T19:33:40.184Z,47.75
2022-12-23T19:36:14.851Z,52.22
2022-12-23T19:38:42.222Z,55.10
2022-12-23T19:41:09.699Z,52.58
2022-12-23T19:43:37.919Z,52.37
2022-12-23T19:46:07.452Z,64.38
2022-12-23T19:48:34.895Z,64.88
2022-12-23T19:51:04.307Z,75.63
2022-12-23T19:53:31.731Z,72.70
2022-12-23T19:56:07.298Z,64.40
2022-12-23T19:58:35.711Z,67.22
2022-12-23T20:01:06.413Z,69.63
2022-12-23T20:03:33.894Z,70.95
2022-12-23T20:06:01.309Z,67.65
2022-12-23T20:08:28.657Z,63.73
2022-12-23T20:11:19.762Z,55.85
2022-12-23T20:13:47.211Z,52.22
2022-12-23T20:16:14.631Z,49.83
2022-12-23T20:18:42.004Z,52.63
2022-12-23T20:21:09.329Z,54.63
2022-12-23T20:23:36.683Z,56.38
2022-12-23T20:26:04.073Z,51.55
2022-12-23T20:28:31.555Z,49.00
2022-12-23T20:31:07.803Z,45.35
2022-12-23T20:33:38.592Z,40.53
2022-12-23T20:36:06.559Z,40.85
2022-12-23T20:38:34.935Z,40.75
2022-12-23T20:41:03.284Z,34.22
2022-12-23T20:43:30.844Z,31.88
2022-12-23T20:45:58.194Z,31.67
2022-12-23T20:48:31.667Z,31.67
2022-12-23T20:51:20.358Z,30.77
2022-12-23T20:53:47.681Z,27.77
2022-12-23T20:56:16.714Z,29.10
2022-12-23T20:58:56.142Z,28.37
2022-12-23T21:01:40.100Z,26.55
2022-12-23T21:04:09.547Z,27.85
2022-12-23T21:06:36.924Z,26.98
2022-12-23T21:09:05.971Z,25.23
2022-12-23T21:11:36.942Z,24.20
2022-12-23T21:14:07.152Z,24.65
2022-12-23T21:16:35.856Z,25.75
2022-12-23T21:19:03.799Z,34.35
2022-12-23T21:21:32.067Z,33.42
2022-12-23T21:24:00.946Z,29.67
2022-12-23T21:26:29.049Z,34.97
2022-12-23T21:29:00.490Z,27.98
2022-12-23T21:31:28.973Z,23.17
2022-12-23T21:33:56.551Z,21.52
2022-12-23T21:36:31.244Z,19.87
2022-12-23T21:38:58.883Z,19.33
2022-12-23T21:41:30.603Z,19.17
2022-12-23T21:43:58.277Z,20.13
2022-12-23T21:46:25.782Z,19.60
2022-12-23T21:48:53.197Z,16.80
2022-12-23T21:51:34.838Z,18.45
2022-12-23T21:54:06.135Z,17.92
2022-12-23T21:56:33.513Z,16.17
2022-12-23T21:59:02.685Z,15.00
2022-12-23T22:01:30.045Z,13.67
2022-12-23T22:03:57.684Z,9.77
2022-12-23T22:06:29.407Z,10.48
2022-12-23T22:08:56.886Z,9.10
2022-12-23T22:11:25.895Z,9.07
2022-12-23T22:13:53.245Z,9.20
2022-12-23T22:16:21.955Z,8.73
2022-12-23T22:18:49.488Z,9.80
2022-12-23T22:21:19.468Z,10.18
2022-12-23T22:23:46.935Z,9.32
2022-12-23T22:26:20.441Z,9.53
2022-12-23T22:28:51.861Z,8.70
2022-12-23T22:31:25.166Z,8.80
2022-12-23T22:33:52.453Z,8.13
2022-12-23T22:36:19.808Z,7.55
2022-12-23T22:38:55.149Z,7.90
2022-12-23T22:41:22.689Z,8.70
2022-12-23T22:43:50.141Z,10.38
2022-12-23T22:46:18.550Z,9.95
2022-12-23T22:48:46.473Z,10.45
2022-12-23T22:51:22.095Z,9.67
2022-12-23T22:53:49.512Z,10.65
2022-12-23T22:56:17.528Z,10.32
2022-12-23T22:58:44.833Z,8.57
2022-12-23T23:01:18.357Z,10.70
2022-12-23T23:03:45.632Z,8.50
2022-12-23T23:06:12.916Z,9.32
2022-12-23T23:08:41.466Z,9.05
2022-12-23T23:11:08.785Z,11.40
2022-12-23T23:13:36.138Z,10.50
2022-12-23T23:16:03.598Z,9.73
2022-12-23T23:18:30.952Z,8.90
2022-12-23T23:20:58.470Z,8.23
2022-12-23T23:23:25.784Z,7.18
2022-12-23T23:25:53.061Z,8.88
2022-12-23T23:28:20.407Z,8.80
2022-12-23T23:30:47.712Z,7.70
2022-12-23T23:33:15.057Z,9.27
2022-12-23T23:35:42.368Z,9.20
2022-12-23T23:38:09.620Z,9.40
2022-12-23T23:40:37.226Z,8.83
2022-12-23T23:43:04.587Z,9.10
2022-12-23T23:45:31.948Z,10.15
2022-12-23T23:47:59.305Z,8.90
2022-12-23T23:50:26.694Z,9.02
2022-12-23T23:52:53.952Z,8.83
2022-12-23T23:55:21.313Z,8.55
2022-12-23T23:57:48.600Z,8.70
